sensor_id;sensor_type;location;lat;lon;timestamp;pressure;altitude;pressure_sealevel;temperature;humidity
32456;BME280;18912;43.270;27.942;2023-06-26T00:02:11;97606.03;;;27.20;68.03
32456;BME280;18912;43.270;27.942;2023-06-26T00:04:37;97607.69;;;27.38;67.22
32456;BME280;18912;43.270;27.942;2023-06-26T00:07:04;97600.00;;;27.52;66.81
32456;BME280;18912;43.270;27.942;2023-06-26T00:09:29;97606.34;;;27.27;67.83
32456;BME280;18912;43.270;27.942;2023-06-26T00:11:55;97602.47;;;27.45;67.43
32456;BME280;18912;43.270;27.942;2023-06-26T00:14:20;97601.78;;;27.56;67.01
32456;BME280;18912;43.270;27.942;2023-06-26T00:16:49;97611.75;;;27.49;67.26
32456;BME280;18912;43.270;27.942;2023-06-26T00:19:17;97614.84;;;27.64;66.54
32456;BME280;18912;43.270;27.942;2023-06-26T00:21:43;97617.78;;;27.59;66.50
32456;BME280;18912;43.270;27.942;2023-06-26T00:24:12;97617.28;;;27.57;66.52
32456;BME280;18912;43.270;27.942;2023-06-26T00:26:38;97624.13;;;27.68;66.21
32456;BME280;18912;43.270;27.942;2023-06-26T00:29:03;97634.25;;;27.30;67.72
32456;BME280;18912;43.270;27.942;2023-06-26T00:31:30;97618.28;;;27.44;67.38
32456;BME280;18912;43.270;27.942;2023-06-26T00:33:55;97623.66;;;27.66;66.49
32456;BME280;18912;43.270;27.942;2023-06-26T00:36:21;97613.38;;;27.58;66.74
32456;BME280;18912;43.270;27.942;2023-06-26T00:38:48;97612.06;;;27.30;68.00
32456;BME280;18912;43.270;27.942;2023-06-26T00:41:13;97616.47;;;27.57;67.20
32456;BME280;18912;43.270;27.942;2023-06-26T00:43:39;97613.03;;;27.68;66.84
32456;BME280;18912;43.270;27.942;2023-06-26T00:46:09;97608.78;;;27.71;66.44
32456;BME280;18912;43.270;27.942;2023-06-26T00:48:36;97607.66;;;27.55;67.01
32456;BME280;18912;43.270;27.942;2023-06-26T00:51:02;97609.47;;;27.34;67.57
32456;BME280;18912;43.270;27.942;2023-06-26T00:53:27;97601.28;;;27.54;66.40
32456;BME280;18912;43.270;27.942;2023-06-26T00:55:53;97602.75;;;27.60;66.46
32456;BME280;18912;43.270;27.942;2023-06-26T00:58:21;97602.75;;;27.60;66.26
32456;BME280;18912;43.270;27.942;2023-06-26T01:00:49;97601.44;;;27.66;66.21
32456;BME280;18912;43.270;27.942;2023-06-26T01:03:14;97603.72;;;27.73;66.15
32456;BME280;18912;43.270;27.942;2023-06-26T01:05:40;97593.25;;;27.79;65.69
32456;BME280;18912;43.270;27.942;2023-06-26T01:08:07;97596.84;;;27.79;65.40
32456;BME280;18912;43.270;27.942;2023-06-26T01:10:34;97597.88;;;27.57;66.07
32456;BME280;18912;43.270;27.942;2023-06-26T01:12:59;97590.34;;;27.66;65.55
32456;BME280;18912;43.270;27.942;2023-06-26T01:15:25;97591.97;;;27.67;65.14
32456;BME280;18912;43.270;27.942;2023-06-26T01:17:51;97590.66;;;27.65;64.84
32456;BME280;18912;43.270;27.942;2023-06-26T01:20:17;97592.13;;;27.62;64.52
32456;BME280;18912;43.270;27.942;2023-06-26T01:22:54;97591.16;;;27.58;64.73
32456;BME280;18912;43.270;27.942;2023-06-26T01:28:13;97588.88;;;27.43;64.89
32456;BME280;18912;43.270;27.942;2023-06-26T01:30:42;97587.09;;;27.56;64.52
32456;BME280;18912;43.270;27.942;2023-06-26T01:33:08;97588.22;;;27.63;64.35
32456;BME280;18912;43.270;27.942;2023-06-26T01:35:34;97583.50;;;27.47;64.99
32456;BME280;18912;43.270;27.942;2023-06-26T01:38:16;97590.50;;;27.61;64.76
32456;BME280;18912;43.270;27.942;2023-06-26T01:40:41;97587.75;;;27.44;65.31
32456;BME280;18912;43.270;27.942;2023-06-26T01:43:21;97584.63;;;27.54;65.21
32456;BME280;18912;43.270;27.942;2023-06-26T01:45:51;97589.22;;;27.50;65.33
32456;BME280;18912;43.270;27.942;2023-06-26T01:48:21;97584.00;;;27.40;65.72
32456;BME280;18912;43.270;27.942;2023-06-26T01:50:47;97587.88;;;27.56;65.34
32456;BME280;18912;43.270;27.942;2023-06-26T01:53:21;97581.69;;;27.59;64.96
32456;BME280;18912;43.270;27.942;2023-06-26T01:58:14;97583.34;;;27.43;65.63
32456;BME280;18912;43.270;27.942;2023-06-26T02:00:42;97582.69;;;27.46;65.81
32456;BME280;18912;43.270;27.942;2023-06-26T02:03:08;97585.47;;;27.46;65.79
32456;BME280;18912;43.270;27.942;2023-06-26T02:05:34;97582.81;;;27.58;65.27
32456;BME280;18912;43.270;27.942;2023-06-26T02:07:59;97582.03;;;27.58;65.76
32456;BME280;18912;43.270;27.942;2023-06-26T02:10:27;97582.16;;;27.70;64.92
32456;BME280;18912;43.270;27.942;2023-06-26T02:12:52;97589.69;;;27.69;65.14
32456;BME280;18912;43.270;27.942;2023-06-26T02:15:18;97583.16;;;27.65;65.53
32456;BME280;18912;43.270;27.942;2023-06-26T02:17:43;97585.25;;;27.68;65.56
32456;BME280;18912;43.270;27.942;2023-06-26T02:20:13;97585.56;;;27.76;65.21
32456;BME280;18912;43.270;27.942;2023-06-26T02:22:39;97586.03;;;27.86;65.06
32456;BME280;18912;43.270;27.942;2023-06-26T02:25:05;97577.22;;;27.84;65.16
32456;BME280;18912;43.270;27.942;2023-06-26T02:27:30;97577.91;;;27.73;65.58
32456;BME280;18912;43.270;27.942;2023-06-26T02:29:56;97582.63;;;27.72;65.97
32456;BME280;18912;43.270;27.942;2023-06-26T02:32:21;97581.94;;;27.84;65.54
32456;BME280;18912;43.270;27.942;2023-06-26T02:34:47;97578.22;;;27.80;65.65
32456;BME280;18912;43.270;27.942;2023-06-26T02:37:12;97580.38;;;27.65;66.16
32456;BME280;18912;43.270;27.942;2023-06-26T02:39:38;97587.50;;;27.84;65.76
32456;BME280;18912;43.270;27.942;2023-06-26T02:42:03;97588.63;;;27.91;65.50
32456;BME280;18912;43.270;27.942;2023-06-26T02:44:29;97581.13;;;27.83;65.56
32456;BME280;18912;43.270;27.942;2023-06-26T02:46:54;97584.44;;;27.77;66.16
32456;BME280;18912;43.270;27.942;2023-06-26T02:49:20;97583.47;;;27.73;66.28
32456;BME280;18912;43.270;27.942;2023-06-26T02:51:45;97576.97;;;27.60;66.84
32456;BME280;18912;43.270;27.942;2023-06-26T02:54:11;97585.44;;;27.63;66.88
32456;BME280;18912;43.270;27.942;2023-06-26T02:56:36;97581.06;;;27.45;67.70
32456;BME280;18912;43.270;27.942;2023-06-26T02:59:02;97582.22;;;27.44;67.51
32456;BME280;18912;43.270;27.942;2023-06-26T03:01:27;97589.88;;;27.47;67.52
32456;BME280;18912;43.270;27.942;2023-06-26T03:03:53;97587.84;;;27.73;66.57
32456;BME280;18912;43.270;27.942;2023-06-26T03:06:18;97580.63;;;27.90;65.77
32456;BME280;18912;43.270;27.942;2023-06-26T03:08:44;97584.72;;;27.92;65.70
32456;BME280;18912;43.270;27.942;2023-06-26T03:11:10;97573.78;;;27.96;65.65
32456;BME280;18912;43.270;27.942;2023-06-26T03:13:36;97579.00;;;27.89;66.01
32456;BME280;18912;43.270;27.942;2023-06-26T03:16:02;97586.19;;;27.98;65.52
32456;BME280;18912;43.270;27.942;2023-06-26T03:18:27;97584.38;;;28.02;65.24
32456;BME280;18912;43.270;27.942;2023-06-26T03:20:54;97574.41;;;27.93;65.84
32456;BME280;18912;43.270;27.942;2023-06-26T03:23:20;97590.78;;;27.86;66.00
32456;BME280;18912;43.270;27.942;2023-06-26T03:25:46;97589.75;;;28.07;65.28
32456;BME280;18912;43.270;27.942;2023-06-26T03:28:12;97576.63;;;27.53;67.19
32456;BME280;18912;43.270;27.942;2023-06-26T03:30:37;97583.25;;;27.95;66.06
32456;BME280;18912;43.270;27.942;2023-06-26T03:33:03;97581.94;;;28.01;65.57
32456;BME280;18912;43.270;27.942;2023-06-26T03:35:28;97581.31;;;27.87;65.92
32456;BME280;18912;43.270;27.942;2023-06-26T03:37:54;97579.38;;;27.79;66.42
32456;BME280;18912;43.270;27.942;2023-06-26T03:40:19;97578.34;;;27.92;65.92
32456;BME280;18912;43.270;27.942;2023-06-26T03:42:45;97582.47;;;27.94;65.93
32456;BME280;18912;43.270;27.942;2023-06-26T03:45:11;97583.16;;;27.57;67.29
32456;BME280;18912;43.270;27.942;2023-06-26T03:47:36;97580.16;;;27.96;66.13
32456;BME280;18912;43.270;27.942;2023-06-26T03:50:02;97581.75;;;28.06;65.65
32456;BME280;18912;43.270;27.942;2023-06-26T03:52:27;97586.22;;;28.27;64.92
32456;BME280;18912;43.270;27.942;2023-06-26T03:54:56;97584.50;;;28.06;65.65
32456;BME280;18912;43.270;27.942;2023-06-26T03:57:22;97585.47;;;28.10;65.62
32456;BME280;18912;43.270;27.942;2023-06-26T03:59:47;97584.31;;;28.19;65.08
32456;BME280;18912;43.270;27.942;2023-06-26T04:02:13;97587.69;;;28.33;64.80
32456;BME280;18912;43.270;27.942;2023-06-26T04:04:38;97575.84;;;28.45;64.21
32456;BME280;18912;43.270;27.942;2023-06-26T04:07:04;97577.88;;;28.36;64.79
32456;BME280;18912;43.270;27.942;2023-06-26T04:09:30;97579.50;;;28.37;64.69
32456;BME280;18912;43.270;27.942;2023-06-26T04:11:55;97590.47;;;28.33;64.82
32456;BME280;18912;43.270;27.942;2023-06-26T04:14:21;97579.06;;;28.55;63.98
32456;BME280;18912;43.270;27.942;2023-06-26T04:16:47;97580.56;;;28.53;64.27
32456;BME280;18912;43.270;27.942;2023-06-26T04:19:12;97577.16;;;28.47;64.28
32456;BME280;18912;43.270;27.942;2023-06-26T04:21:38;97582.59;;;28.35;65.33
32456;BME280;18912;43.270;27.942;2023-06-26T04:24:05;97579.13;;;28.47;65.02
32456;BME280;18912;43.270;27.942;2023-06-26T04:26:30;97575.50;;;28.55;64.57
32456;BME280;18912;43.270;27.942;2023-06-26T04:28:56;97577.13;;;28.56;64.38
32456;BME280;18912;43.270;27.942;2023-06-26T04:31:21;97576.28;;;28.85;63.62
32456;BME280;18912;43.270;27.942;2023-06-26T04:33:47;97575.41;;;28.93;63.34
32456;BME280;18912;43.270;27.942;2023-06-26T04:36:19;97577.28;;;28.80;63.22
32456;BME280;18912;43.270;27.942;2023-06-26T04:38:45;97569.16;;;28.75;63.07
32456;BME280;18912;43.270;27.942;2023-06-26T04:41:10;97575.88;;;28.74;63.38
32456;BME280;18912;43.270;27.942;2023-06-26T04:43:36;97577.41;;;28.84;63.56
32456;BME280;18912;43.270;27.942;2023-06-26T04:46:04;97581.72;;;28.81;63.30
32456;BME280;18912;43.270;27.942;2023-06-26T04:48:31;97572.78;;;28.67;63.65
32456;BME280;18912;43.270;27.942;2023-06-26T04:50:56;97580.00;;;28.68;63.08
32456;BME280;18912;43.270;27.942;2023-06-26T04:53:24;97585.84;;;28.75;62.74
32456;BME280;18912;43.270;27.942;2023-06-26T04:55:50;97590.72;;;28.78;62.59
32456;BME280;18912;43.270;27.942;2023-06-26T04:58:17;97595.38;;;28.95;62.04
32456;BME280;18912;43.270;27.942;2023-06-26T05:00:42;97595.53;;;28.69;62.21
32456;BME280;18912;43.270;27.942;2023-06-26T05:03:12;97598.56;;;28.76;61.91
32456;BME280;18912;43.270;27.942;2023-06-26T05:05:38;97595.75;;;28.85;61.44
32456;BME280;18912;43.270;27.942;2023-06-26T05:08:16;97595.97;;;28.42;62.19
32456;BME280;18912;43.270;27.942;2023-06-26T05:10:42;97601.94;;;28.61;61.98
32456;BME280;18912;43.270;27.942;2023-06-26T05:13:08;97594.56;;;28.65;62.49
32456;BME280;18912;43.270;27.942;2023-06-26T05:15:33;97595.41;;;28.86;61.78
32456;BME280;18912;43.270;27.942;2023-06-26T05:17:59;97593.38;;;28.95;61.56
32456;BME280;18912;43.270;27.942;2023-06-26T05:20:24;97596.97;;;28.96;61.63
32456;BME280;18912;43.270;27.942;2023-06-26T05:22:50;97606.31;;;29.20;60.87
32456;BME280;18912;43.270;27.942;2023-06-26T05:25:18;97598.84;;;29.12;60.77
32456;BME280;18912;43.270;27.942;2023-06-26T05:27:46;97595.41;;;29.15;60.22
32456;BME280;18912;43.270;27.942;2023-06-26T05:30:13;97600.31;;;29.10;60.45
32456;BME280;18912;43.270;27.942;2023-06-26T05:32:40;97597.50;;;29.18;59.59
32456;BME280;18912;43.270;27.942;2023-06-26T05:35:05;97597.00;;;29.37;60.16
32456;BME280;18912;43.270;27.942;2023-06-26T05:37:32;97600.09;;;29.56;59.21
32456;BME280;18912;43.270;27.942;2023-06-26T05:39:58;97606.00;;;29.75;58.47
32456;BME280;18912;43.270;27.942;2023-06-26T05:42:24;97597.41;;;29.47;60.09
32456;BME280;18912;43.270;27.942;2023-06-26T05:44:49;97604.72;;;29.73;58.95
32456;BME280;18912;43.270;27.942;2023-06-26T05:47:15;97602.16;;;30.12;58.96
32456;BME280;18912;43.270;27.942;2023-06-26T05:49:40;97611.03;;;30.38;58.61
32456;BME280;18912;43.270;27.942;2023-06-26T05:52:06;97610.88;;;31.19;58.15
32456;BME280;18912;43.270;27.942;2023-06-26T05:54:32;97612.34;;;31.53;57.70
32456;BME280;18912;43.270;27.942;2023-06-26T05:56:58;97610.06;;;31.86;55.20
32456;BME280;18912;43.270;27.942;2023-06-26T05:59:25;97615.91;;;32.09;52.57
32456;BME280;18912;43.270;27.942;2023-06-26T06:01:52;97609.66;;;32.43;51.95
32456;BME280;18912;43.270;27.942;2023-06-26T06:04:17;97618.94;;;32.47;51.68
32456;BME280;18912;43.270;27.942;2023-06-26T06:06:43;97609.56;;;32.55;51.11
32456;BME280;18912;43.270;27.942;2023-06-26T06:09:08;97609.59;;;33.05;50.20
32456;BME280;18912;43.270;27.942;2023-06-26T06:11:34;97620.00;;;32.74;50.46
32456;BME280;18912;43.270;27.942;2023-06-26T06:13:59;97627.56;;;33.04;49.79
32456;BME280;18912;43.270;27.942;2023-06-26T06:16:25;97632.91;;;32.94;49.15
32456;BME280;18912;43.270;27.942;2023-06-26T06:18:51;97630.81;;;33.07;48.55
32456;BME280;18912;43.270;27.942;2023-06-26T06:21:16;97625.53;;;33.21;48.00
32456;BME280;18912;43.270;27.942;2023-06-26T06:23:42;97636.34;;;33.03;48.33
32456;BME280;18912;43.270;27.942;2023-06-26T06:26:08;97637.63;;;32.74;48.46
32456;BME280;18912;43.270;27.942;2023-06-26T06:28:33;97640.16;;;32.48;49.18
32456;BME280;18912;43.270;27.942;2023-06-26T06:30:59;97644.72;;;32.25;49.28
32456;BME280;18912;43.270;27.942;2023-06-26T06:33:24;97635.91;;;31.68;49.39
32456;BME280;18912;43.270;27.942;2023-06-26T06:35:49;97632.03;;;32.00;49.35
32456;BME280;18912;43.270;27.942;2023-06-26T06:38:15;97636.00;;;31.44;50.29
32456;BME280;18912;43.270;27.942;2023-06-26T06:40:40;97640.72;;;31.83;49.22
32456;BME280;18912;43.270;27.942;2023-06-26T06:43:06;97634.38;;;31.18;50.03
32456;BME280;18912;43.270;27.942;2023-06-26T06:45:31;97636.31;;;31.82;49.70
32456;BME280;18912;43.270;27.942;2023-06-26T06:47:57;97640.22;;;32.36;48.78
32456;BME280;18912;43.270;27.942;2023-06-26T06:50:22;97646.53;;;32.33;48.29
32456;BME280;18912;43.270;27.942;2023-06-26T06:52:48;97643.00;;;32.36;47.46
32456;BME280;18912;43.270;27.942;2023-06-26T06:55:13;97643.75;;;32.33;47.52
32456;BME280;18912;43.270;27.942;2023-06-26T06:57:39;97651.63;;;31.88;48.59
32456;BME280;18912;43.270;27.942;2023-06-26T07:00:06;97648.28;;;31.82;48.20
32456;BME280;18912;43.270;27.942;2023-06-26T07:02:35;97651.59;;;32.00;47.95
32456;BME280;18912;43.270;27.942;2023-06-26T07:05:01;97651.16;;;31.70;48.60
32456;BME280;18912;43.270;27.942;2023-06-26T07:07:29;97653.03;;;31.94;48.14
32456;BME280;18912;43.270;27.942;2023-06-26T07:10:05;97647.09;;;31.56;49.56
32456;BME280;18912;43.270;27.942;2023-06-26T07:12:33;97650.88;;;31.48;49.74
32456;BME280;18912;43.270;27.942;2023-06-26T07:15:00;97652.94;;;31.51;49.49
32456;BME280;18912;43.270;27.942;2023-06-26T07:17:26;97654.44;;;31.88;49.61
32456;BME280;18912;43.270;27.942;2023-06-26T07:19:51;97658.47;;;32.18;48.83
32456;BME280;18912;43.270;27.942;2023-06-26T07:22:17;97655.25;;;32.16;48.69
32456;BME280;18912;43.270;27.942;2023-06-26T07:24:46;97654.59;;;32.07;48.64
32456;BME280;18912;43.270;27.942;2023-06-26T07:27:11;97664.69;;;32.55;48.86
32456;BME280;18912;43.270;27.942;2023-06-26T07:29:37;97652.34;;;32.56;47.44
32456;BME280;18912;43.270;27.942;2023-06-26T07:32:02;97652.06;;;32.61;47.62
32456;BME280;18912;43.270;27.942;2023-06-26T07:34:28;97649.56;;;33.22;46.46
32456;BME280;18912;43.270;27.942;2023-06-26T07:36:53;97650.06;;;33.43;46.04
32456;BME280;18912;43.270;27.942;2023-06-26T07:39:19;97647.38;;;33.84;44.62
32456;BME280;18912;43.270;27.942;2023-06-26T07:41:44;97648.19;;;34.04;44.37
32456;BME280;18912;43.270;27.942;2023-06-26T07:44:10;97648.56;;;34.67;43.61
32456;BME280;18912;43.270;27.942;2023-06-26T07:46:35;97653.53;;;35.00;43.06
32456;BME280;18912;43.270;27.942;2023-06-26T07:49:00;97655.13;;;35.23;42.70
32456;BME280;18912;43.270;27.942;2023-06-26T07:51:26;97656.59;;;35.14;41.32
32456;BME280;18912;43.270;27.942;2023-06-26T07:53:51;97649.50;;;34.97;41.33
32456;BME280;18912;43.270;27.942;2023-06-26T07:56:17;97652.31;;;35.23;41.12
32456;BME280;18912;43.270;27.942;2023-06-26T07:58:43;97656.25;;;35.45;41.66
32456;BME280;18912;43.270;27.942;2023-06-26T08:01:08;97658.28;;;35.78;39.77
32456;BME280;18912;43.270;27.942;2023-06-26T08:03:34;97655.75;;;35.39;40.60
32456;BME280;18912;43.270;27.942;2023-06-26T08:06:00;97658.41;;;35.55;40.07
32456;BME280;18912;43.270;27.942;2023-06-26T08:08:25;97663.53;;;35.49;40.10
32456;BME280;18912;43.270;27.942;2023-06-26T08:10:50;97667.91;;;35.47;41.11
32456;BME280;18912;43.270;27.942;2023-06-26T08:13:16;97663.03;;;34.92;40.51
32456;BME280;18912;43.270;27.942;2023-06-26T08:15:41;97660.75;;;34.33;41.58
32456;BME280;18912;43.270;27.942;2023-06-26T08:18:07;97663.47;;;34.48;41.23
32456;BME280;18912;43.270;27.942;2023-06-26T08:20:32;97665.31;;;33.99;42.26
32456;BME280;18912;43.270;27.942;2023-06-26T08:23:00;97660.06;;;34.17;42.40
32456;BME280;18912;43.270;27.942;2023-06-26T08:25:26;97663.81;;;34.24;41.62
32456;BME280;18912;43.270;27.942;2023-06-26T08:27:51;97664.06;;;34.57;41.64
32456;BME280;18912;43.270;27.942;2023-06-26T08:30:17;97654.38;;;34.13;41.51
32456;BME280;18912;43.270;27.942;2023-06-26T08:32:43;97679.31;;;34.82;41.64
32456;BME280;18912;43.270;27.942;2023-06-26T08:35:08;97675.56;;;34.98;40.63
32456;BME280;18912;43.270;27.942;2023-06-26T08:37:35;97664.09;;;34.83;40.45
32456;BME280;18912;43.270;27.942;2023-06-26T08:40:01;97669.16;;;35.49;40.20
32456;BME280;18912;43.270;27.942;2023-06-26T08:42:26;97665.41;;;35.68;40.12
32456;BME280;18912;43.270;27.942;2023-06-26T08:44:52;97668.63;;;35.70;38.53
32456;BME280;18912;43.270;27.942;2023-06-26T08:47:18;97670.97;;;36.27;39.22
32456;BME280;18912;43.270;27.942;2023-06-26T08:49:57;97660.81;;;35.86;39.45
32456;BME280;18912;43.270;27.942;2023-06-26T08:52:36;97668.38;;;35.79;39.57
32456;BME280;18912;43.270;27.942;2023-06-26T08:55:06;97668.78;;;36.43;38.29
32456;BME280;18912;43.270;27.942;2023-06-26T08:57:34;97679.63;;;36.45;37.96
32456;BME280;18912;43.270;27.942;2023-06-26T09:00:00;97677.88;;;37.14;37.22
32456;BME280;18912;43.270;27.942;2023-06-26T09:02:26;97675.97;;;37.93;36.05
32456;BME280;18912;43.270;27.942;2023-06-26T09:04:51;97673.16;;;37.90;35.06
32456;BME280;18912;43.270;27.942;2023-06-26T09:07:17;97672.59;;;37.63;35.70
32456;BME280;18912;43.270;27.942;2023-06-26T09:09:44;97674.44;;;37.38;35.90
32456;BME280;18912;43.270;27.942;2023-06-26T09:12:10;97669.50;;;37.89;35.40
32456;BME280;18912;43.270;27.942;2023-06-26T09:14:36;97669.13;;;37.94;35.53
32456;BME280;18912;43.270;27.942;2023-06-26T09:17:03;97664.50;;;38.58;34.08
32456;BME280;18912;43.270;27.942;2023-06-26T09:19:28;97664.31;;;38.05;35.83
32456;BME280;18912;43.270;27.942;2023-06-26T09:21:54;97677.25;;;38.17;35.83
32456;BME280;18912;43.270;27.942;2023-06-26T09:24:19;97676.66;;;37.11;36.23
32456;BME280;18912;43.270;27.942;2023-06-26T09:26:47;97674.56;;;37.05;35.09
32456;BME280;18912;43.270;27.942;2023-06-26T09:29:13;97677.81;;;37.10;35.29
32456;BME280;18912;43.270;27.942;2023-06-26T09:31:40;97680.09;;;37.38;35.59
32456;BME280;18912;43.270;27.942;2023-06-26T09:34:06;97671.53;;;36.84;36.52
32456;BME280;18912;43.270;27.942;2023-06-26T09:36:32;97675.66;;;36.90;36.13
32456;BME280;18912;43.270;27.942;2023-06-26T09:39:03;97680.84;;;36.84;37.17
32456;BME280;18912;43.270;27.942;2023-06-26T09:41:30;97680.19;;;36.61;36.21
32456;BME280;18912;43.270;27.942;2023-06-26T09:44:01;97665.69;;;36.59;36.68
32456;BME280;18912;43.270;27.942;2023-06-26T09:46:29;97672.84;;;36.49;36.39
32456;BME280;18912;43.270;27.942;2023-06-26T09:49:08;97668.75;;;35.77;38.10
32456;BME280;18912;43.270;27.942;2023-06-26T09:51:37;97663.31;;;35.91;38.06
32456;BME280;18912;43.270;27.942;2023-06-26T09:54:04;97672.06;;;36.16;37.71
32456;BME280;18912;43.270;27.942;2023-06-26T09:56:30;97668.25;;;35.98;37.60
32456;BME280;18912;43.270;27.942;2023-06-26T09:58:57;97662.94;;;35.93;37.10
32456;BME280;18912;43.270;27.942;2023-06-26T10:01:24;97663.03;;;35.70;37.26
32456;BME280;18912;43.270;27.942;2023-06-26T10:03:49;97669.31;;;36.23;36.50
32456;BME280;18912;43.270;27.942;2023-06-26T10:06:19;97669.25;;;36.16;36.96
32456;BME280;18912;43.270;27.942;2023-06-26T10:08:45;97669.97;;;36.09;36.25
32456;BME280;18912;43.270;27.942;2023-06-26T10:11:14;97673.34;;;35.62;36.77
32456;BME280;18912;43.270;27.942;2023-06-26T10:13:43;97676.22;;;35.40;37.15
32456;BME280;18912;43.270;27.942;2023-06-26T10:16:11;97675.03;;;35.67;37.89
32456;BME280;18912;43.270;27.942;2023-06-26T10:18:42;97676.94;;;35.07;37.85
32456;BME280;18912;43.270;27.942;2023-06-26T10:21:09;97676.47;;;35.54;37.45
32456;BME280;18912;43.270;27.942;2023-06-26T10:23:39;97674.19;;;35.63;36.71
32456;BME280;18912;43.270;27.942;2023-06-26T10:26:06;97664.94;;;35.62;36.71
32456;BME280;18912;43.270;27.942;2023-06-26T10:28:33;97667.16;;;35.80;36.09
32456;BME280;18912;43.270;27.942;2023-06-26T10:31:00;97662.09;;;35.33;37.02
32456;BME280;18912;43.270;27.942;2023-06-26T10:33:27;97655.91;;;35.80;35.78
32456;BME280;18912;43.270;27.942;2023-06-26T10:35:53;97662.06;;;36.22;35.49
32456;BME280;18912;43.270;27.942;2023-06-26T10:38:18;97649.59;;;36.23;35.50
32456;BME280;18912;43.270;27.942;2023-06-26T10:40:47;97651.19;;;35.54;36.89
32456;BME280;18912;43.270;27.942;2023-06-26T10:43:17;97649.97;;;36.18;35.93
32456;BME280;18912;43.270;27.942;2023-06-26T10:45:54;97662.47;;;36.20;34.42
32456;BME280;18912;43.270;27.942;2023-06-26T10:48:20;97647.66;;;36.64;34.04
32456;BME280;18912;43.270;27.942;2023-06-26T10:50:48;97651.13;;;36.90;33.82
32456;BME280;18912;43.270;27.942;2023-06-26T10:56:05;97646.50;;;37.19;34.12
32456;BME280;18912;43.270;27.942;2023-06-26T10:58:49;97640.03;;;37.76;33.76
32456;BME280;18912;43.270;27.942;2023-06-26T11:01:18;97654.44;;;37.61;33.96
32456;BME280;18912;43.270;27.942;2023-06-26T11:03:47;97659.25;;;37.60;33.02
32456;BME280;18912;43.270;27.942;2023-06-26T11:06:23;97646.97;;;37.28;32.80
32456;BME280;18912;43.270;27.942;2023-06-26T11:09:09;97645.03;;;37.39;34.41
32456;BME280;18912;43.270;27.942;2023-06-26T11:14:21;97639.31;;;37.25;34.07
32456;BME280;18912;43.270;27.942;2023-06-26T11:16:47;97650.66;;;37.35;33.05
32456;BME280;18912;43.270;27.942;2023-06-26T11:19:14;97650.44;;;37.07;33.83
32456;BME280;18912;43.270;27.942;2023-06-26T11:21:40;97651.34;;;36.34;33.79
32456;BME280;18912;43.270;27.942;2023-06-26T11:24:07;97645.00;;;36.04;34.39
32456;BME280;18912;43.270;27.942;2023-06-26T11:26:43;97637.66;;;35.37;35.61
32456;BME280;18912;43.270;27.942;2023-06-26T11:29:10;97638.00;;;35.91;35.20
32456;BME280;18912;43.270;27.942;2023-06-26T11:31:40;97645.00;;;36.04;34.14
32456;BME280;18912;43.270;27.942;2023-06-26T11:34:10;97644.47;;;36.28;33.96
32456;BME280;18912;43.270;27.942;2023-06-26T11:36:37;97637.47;;;36.92;33.56
32456;BME280;18912;43.270;27.942;2023-06-26T11:39:05;97633.16;;;37.12;32.82
32456;BME280;18912;43.270;27.942;2023-06-26T11:41:32;97637.22;;;37.15;34.35
32456;BME280;18912;43.270;27.942;2023-06-26T11:44:02;97631.28;;;37.27;33.58
32456;BME280;18912;43.270;27.942;2023-06-26T11:46:27;97638.75;;;37.02;33.50
32456;BME280;18912;43.270;27.942;2023-06-26T11:48:53;97645.22;;;37.06;33.63
32456;BME280;18912;43.270;27.942;2023-06-26T11:51:19;97637.31;;;36.78;32.88
32456;BME280;18912;43.270;27.942;2023-06-26T11:53:46;97642.47;;;36.32;32.82
32456;BME280;18912;43.270;27.942;2023-06-26T11:56:14;97640.72;;;35.84;33.01
32456;BME280;18912;43.270;27.942;2023-06-26T11:59:09;97636.06;;;35.65;32.83
32456;BME280;18912;43.270;27.942;2023-06-26T12:01:37;97642.88;;;35.64;32.89
32456;BME280;18912;43.270;27.942;2023-06-26T12:04:05;97640.22;;;35.75;33.27
32456;BME280;18912;43.270;27.942;2023-06-26T12:06:33;97644.91;;;35.97;33.20
32456;BME280;18912;43.270;27.942;2023-06-26T12:09:01;97636.38;;;35.90;33.60
32456;BME280;18912;43.270;27.942;2023-06-26T12:11:27;97656.13;;;35.38;33.44
32456;BME280;18912;43.270;27.942;2023-06-26T12:13:55;97649.00;;;34.92;38.15
32456;BME280;18912;43.270;27.942;2023-06-26T12:16:21;97649.13;;;34.76;40.17
32456;BME280;18912;43.270;27.942;2023-06-26T12:18:47;97645.22;;;33.78;42.59
32456;BME280;18912;43.270;27.942;2023-06-26T12:24:00;97653.31;;;32.79;44.78
32456;BME280;18912;43.270;27.942;2023-06-26T12:26:27;97648.53;;;32.79;44.59
32456;BME280;18912;43.270;27.942;2023-06-26T12:29:01;97646.03;;;32.00;46.60
32456;BME280;18912;43.270;27.942;2023-06-26T12:31:27;97651.22;;;31.46;47.70
32456;BME280;18912;43.270;27.942;2023-06-26T12:33:52;97654.34;;;32.28;45.71
32456;BME280;18912;43.270;27.942;2023-06-26T12:36:18;97646.47;;;31.74;47.37
32456;BME280;18912;43.270;27.942;2023-06-26T12:38:45;97644.78;;;31.58;47.35
32456;BME280;18912;43.270;27.942;2023-06-26T12:41:14;97636.75;;;30.92;48.89
32456;BME280;18912;43.270;27.942;2023-06-26T12:43:41;97645.81;;;31.01;48.39
32456;BME280;18912;43.270;27.942;2023-06-26T12:46:06;97645.75;;;31.25;46.33
32456;BME280;18912;43.270;27.942;2023-06-26T12:48:42;97648.44;;;31.74;45.26
32456;BME280;18912;43.270;27.942;2023-06-26T12:51:17;97650.41;;;31.46;47.20
32456;BME280;18912;43.270;27.942;2023-06-26T12:53:43;97654.13;;;32.05;45.61
32456;BME280;18912;43.270;27.942;2023-06-26T12:56:10;97670.75;;;32.72;43.23
32456;BME280;18912;43.270;27.942;2023-06-26T12:58:36;97663.22;;;33.23;42.50
32456;BME280;18912;43.270;27.942;2023-06-26T13:01:03;97658.28;;;33.17;43.27
32456;BME280;18912;43.270;27.942;2023-06-26T13:03:29;97664.47;;;33.26;42.64